Time;durP1;ratioP1;P1;durP2;ratioP2;P2;SDS_P1;SDS_P2;PMS_P1;PMS_P2;Temp;Humidity;BMP_temperature;BMP_pressure;BME280_temperature;BME280_humidity;BME280_pressure;Samples;Min_cycle;Max_cycle;Signal;HPM_P1;HPM_P2
2022/06/03 00:01:50;;;;;;;;;;;15.90;88.90;;;;;;4303023;33;45295;-76
2022/06/03 00:04:32;;;;;;;;;;;15.90;89.00;;;;;;4302397;33;43489;-77
2022/06/03 00:07:11;;;;;;;;;;;15.90;89.10;;;;;;4315515;33;44239;-77
2022/06/03 00:09:45;;;;;;;;;;;15.80;89.20;;;;;;4302544;33;45236;-77
2022/06/03 00:12:44;;;;;;;;;;;15.80;89.40;;;;;;4302905;33;43770;-77
2022/06/03 00:15:20;;;;;;;;;;;15.80;89.50;;;;;;4293464;33;42525;-77
2022/06/03 00:17:55;;;;;;;;;;;15.70;89.60;;;;;;4304679;33;44067;-77
2022/06/03 00:20:25;;;;;;;;;;;15.70;89.70;;;;;;4304866;33;43466;-77
2022/06/03 00:23:10;;;;;;;;;;;15.70;89.70;;;;;;4318047;33;43109;-77
2022/06/03 00:25:41;;;;;;;;;;;15.70;89.80;;;;;;4305043;33;43212;-77
2022/06/03 00:28:11;;;;;;;;;;;15.80;89.80;;;;;;4304851;33;43968;-77
2022/06/03 00:31:04;;;;;;;;;;;15.80;89.60;;;;;;4316391;33;42827;-77
2022/06/03 00:33:58;;;;;;;;;;;15.80;89.70;;;;;;4288055;33;42300;-76
2022/06/03 00:36:39;;;;;;;;;;;15.80;89.50;;;;;;4304050;33;43512;-77
2022/06/03 00:39:09;;;;;;;;;;;15.80;89.60;;;;;;4305117;33;45026;-77
2022/06/03 00:41:40;;;;;;;;;;;15.80;89.70;;;;;;4304692;33;44649;-77
2022/06/03 00:44:10;;;;;;;;;;;15.80;89.60;;;;;;4304939;33;45673;-76
2022/06/03 00:47:13;;;;;;;;;;;15.80;89.80;;;;;;4304501;33;45087;-77
2022/06/03 00:50:00;;;;;;;;;;;15.80;89.90;;;;;;4260706;33;43908;-77
2022/06/03 00:52:36;;;;;;;;;;;15.80;89.90;;;;;;4315044;33;43888;-77
2022/06/03 00:55:23;;;;;;;;;;;15.80;89.80;;;;;;4304737;33;43450;-77
2022/06/03 00:58:10;;;;;;;;;;;15.80;89.80;;;;;;4304529;33;42138;-77
2022/06/03 01:00:55;;;;;;;;;;;15.70;89.90;;;;;;4317627;33;42631;-76
2022/06/03 01:03:28;;;;;;;;;;;15.70;90.00;;;;;;4317428;33;43477;-77
2022/06/03 01:06:09;;;;;;;;;;;15.70;90.00;;;;;;4317137;33;42712;-77
2022/06/03 01:08:55;;;;;;;;;;;15.70;90.00;;;;;;4317752;33;44020;-77
2022/06/03 01:11:29;;;;;;;;;;;15.70;90.00;;;;;;4304205;33;43050;-77
2022/06/03 01:14:05;;;;;;;;;;;15.70;90.10;;;;;;4304563;33;44003;-77
2022/06/03 01:16:53;;;;;;;;;;;15.70;90.10;;;;;;4304204;33;43451;-77
2022/06/03 01:19:55;;;;;;;;;;;15.70;90.10;;;;;;4304739;33;45308;-77
2022/06/03 01:22:32;;;;;;;;;;;15.60;90.20;;;;;;4317348;33;43823;-77
2022/06/03 01:25:10;;;;;;;;;;;15.60;90.20;;;;;;4303530;33;43788;-77
2022/06/03 01:27:37;;;;;;;;;;;15.60;90.30;;;;;;4317115;33;43906;-77
2022/06/03 01:30:11;;;;;;;;;;;15.50;90.20;;;;;;4303576;33;44284;-77
2022/06/03 01:32:50;;;;;;;;;;;15.60;90.30;;;;;;4317258;33;44200;-77
2022/06/03 01:35:21;;;;;;;;;;;15.50;90.40;;;;;;4304040;33;43089;-77
2022/06/03 01:38:07;;;;;;;;;;;15.40;90.50;;;;;;4316551;33;42926;-77
2022/06/03 01:40:57;;;;;;;;;;;15.40;90.50;;;;;;4316982;33;45150;-77
2022/06/03 01:43:30;;;;;;;;;;;15.40;90.60;;;;;;4311191;33;45031;-76
2022/06/03 01:45:58;;;;;;;;;;;15.40;90.60;;;;;;4316911;33;44741;-77
2022/06/03 01:48:34;;;;;;;;;;;15.40;90.60;;;;;;4303535;33;43565;-77
2022/06/03 01:51:01;;;;;;;;;;;15.40;90.60;;;;;;4316379;33;42752;-76
2022/06/03 01:53:34;;;;;;;;;;;15.40;90.50;;;;;;4303997;33;44136;-77
2022/06/03 01:56:16;;;;;;;;;;;15.40;90.60;;;;;;4316377;33;43577;-77
2022/06/03 01:59:07;;;;;;;;;;;15.40;90.60;;;;;;4303242;33;43838;-76
2022/06/03 02:01:53;;;;;;;;;;;15.40;90.50;;;;;;4303036;33;42782;-77
2022/06/03 02:04:37;;;;;;;;;;;15.40;90.50;;;;;;4303216;33;42667;-76
2022/06/03 02:07:07;;;;;;;;;;;15.50;90.60;;;;;;4303543;33;45151;-77
2022/06/03 02:09:53;;;;;;;;;;;15.50;90.60;;;;;;4316009;33;46049;-76
2022/06/03 02:12:30;;;;;;;;;;;15.50;90.60;;;;;;4303507;33;43473;-77
2022/06/03 02:15:06;;;;;;;;;;;15.60;90.40;;;;;;4303620;33;45959;-77
2022/06/03 02:17:33;;;;;;;;;;;15.50;90.20;;;;;;4316332;33;43137;-77
2022/06/03 02:20:03;;;;;;;;;;;15.50;90.10;;;;;;4317443;33;20006;-77
2022/06/03 02:22:39;;;;;;;;;;;15.50;90.10;;;;;;4302778;33;43474;-77
2022/06/03 02:25:09;;;;;;;;;;;15.50;90.10;;;;;;4315909;33;44443;-77
2022/06/03 02:27:45;;;;;;;;;;;15.50;90.10;;;;;;4302990;33;43961;-77
2022/06/03 02:30:31;;;;;;;;;;;15.50;90.10;;;;;;4302873;33;44076;-77
2022/06/03 02:33:04;;;;;;;;;;;15.50;90.10;;;;;;4316417;33;43362;-76
2022/06/03 02:35:34;;;;;;;;;;;15.40;90.10;;;;;;4302832;33;44806;-77
2022/06/03 02:38:01;;;;;;;;;;;15.40;90.00;;;;;;4315654;33;43659;-77
2022/06/03 02:40:37;;;;;;;;;;;15.40;90.10;;;;;;4315680;33;45006;-77
2022/06/03 02:43:05;;;;;;;;;;;15.30;90.10;;;;;;4315849;33;43859;-77
2022/06/03 02:46:02;;;;;;;;;;;15.20;90.30;;;;;;4315732;33;42790;-76
2022/06/03 02:48:41;;;;;;;;;;;15.10;90.40;;;;;;4316232;33;44167;-77
2022/06/03 02:51:27;;;;;;;;;;;15.10;90.50;;;;;;4316680;33;20005;-76
2022/06/03 02:54:10;;;;;;;;;;;15.00;90.60;;;;;;4303111;33;43004;-76
2022/06/03 02:56:40;;;;;;;;;;;14.90;90.70;;;;;;4315593;33;43001;-77
2022/06/03 02:59:34;;;;;;;;;;;14.90;90.70;;;;;;4302722;33;43281;-77
2022/06/03 03:02:07;;;;;;;;;;;14.90;90.80;;;;;;4315846;33;44152;-76
2022/06/03 03:04:35;;;;;;;;;;;14.90;90.70;;;;;;4302875;33;43157;-76
2022/06/03 03:07:09;;;;;;;;;;;15.00;90.70;;;;;;4315499;33;43516;-77
2022/06/03 03:09:36;;;;;;;;;;;15.00;90.70;;;;;;4315712;33;42921;-77
2022/06/03 03:12:15;;;;;;;;;;;15.00;90.60;;;;;;4302486;33;44243;-77
2022/06/03 03:15:01;;;;;;;;;;;15.00;90.60;;;;;;4316198;33;43895;-77
2022/06/03 03:17:48;;;;;;;;;;;15.00;90.50;;;;;;4316047;33;43740;-76
2022/06/03 03:20:24;;;;;;;;;;;15.00;90.40;;;;;;4302769;33;43866;-77
2022/06/03 03:23:10;;;;;;;;;;;15.00;90.40;;;;;;4303342;33;20057;-77
2022/06/03 03:25:55;;;;;;;;;;;15.00;90.40;;;;;;4302687;33;44102;-77
2022/06/03 03:28:35;;;;;;;;;;;15.00;90.50;;;;;;4315839;33;43596;-77
2022/06/03 03:31:02;;;;;;;;;;;14.90;90.50;;;;;;4315647;33;45146;-77
2022/06/03 03:34:00;;;;;;;;;;;14.90;90.60;;;;;;4315526;33;43123;-76
2022/06/03 03:36:27;;;;;;;;;;;14.80;90.60;;;;;;4303039;33;43851;-77
2022/06/03 03:39:14;;;;;;;;;;;14.80;90.60;;;;;;4302231;33;44373;-77
2022/06/03 03:42:00;;;;;;;;;;;14.80;90.60;;;;;;4315677;33;43948;-77
2022/06/03 03:44:58;;;;;;;;;;;14.70;90.80;;;;;;4302542;33;42616;-77
2022/06/03 03:47:50;;;;;;;;;;;14.70;90.80;;;;;;4303350;33;42828;-77
2022/06/03 03:50:32;;;;;;;;;;;14.70;91.00;;;;;;4318608;33;43188;-77
2022/06/03 03:53:09;;;;;;;;;;;14.70;91.10;;;;;;4319080;33;20100;-77
2022/06/03 03:55:49;;;;;;;;;;;14.70;90.90;;;;;;4318128;33;42867;-77
2022/06/03 03:58:35;;;;;;;;;;;14.70;91.00;;;;;;4304991;33;44271;-77
2022/06/03 04:01:11;;;;;;;;;;;14.70;91.00;;;;;;4318196;33;42942;-77
2022/06/03 04:03:51;;;;;;;;;;;14.70;90.90;;;;;;4317936;33;43636;-77
2022/06/03 04:06:18;;;;;;;;;;;14.70;90.80;;;;;;4305082;33;43765;-77
2022/06/03 04:08:51;;;;;;;;;;;14.70;90.90;;;;;;4305168;33;43876;-77
2022/06/03 04:11:37;;;;;;;;;;;14.70;90.90;;;;;;4318415;33;44012;-77
2022/06/03 04:14:07;;;;;;;;;;;14.70;90.90;;;;;;4304939;33;44254;-77
2022/06/03 04:16:53;;;;;;;;;;;14.80;90.90;;;;;;4317883;33;43954;-77
2022/06/03 04:19:26;;;;;;;;;;;14.70;90.90;;;;;;4304853;33;43820;-76
2022/06/03 04:21:56;;;;;;;;;;;14.80;90.90;;;;;;4317913;33;45955;-77
2022/06/03 04:24:42;;;;;;;;;;;14.80;90.90;;;;;;4305463;33;20458;-76
2022/06/03 04:27:21;;;;;;;;;;;14.80;90.90;;;;;;4304484;33;44478;-77
2022/06/03 04:29:54;;;;;;;;;;;14.80;90.90;;;;;;4317887;33;43961;-77
2022/06/03 04:32:27;;;;;;;;;;;14.80;91.00;;;;;;4304983;33;45091;-77
2022/06/03 04:35:13;;;;;;;;;;;14.80;91.00;;;;;;4304425;33;42246;-77
2022/06/03 04:37:49;;;;;;;;;;;14.80;91.00;;;;;;4318059;33;43461;-77
2022/06/03 04:40:35;;;;;;;;;;;14.80;91.10;;;;;;4317578;33;43474;-77
2022/06/03 04:43:18;;;;;;;;;;;14.80;91.20;;;;;;4304196;33;42954;-77
2022/06/03 04:46:04;;;;;;;;;;;14.80;91.20;;;;;;4317404;33;45550;-77
2022/06/03 04:48:52;;;;;;;;;;;14.80;91.20;;;;;;4317849;33;44086;-77
2022/06/03 04:51:33;;;;;;;;;;;14.80;91.30;;;;;;4317769;33;42985;-77
2022/06/03 04:54:01;;;;;;;;;;;14.80;91.60;;;;;;4304640;33;43490;-77
2022/06/03 04:56:46;;;;;;;;;;;14.80;91.40;;;;;;4318381;33;20005;-77
2022/06/03 04:59:17;;;;;;;;;;;14.80;91.60;;;;;;4316984;33;43897;-77
2022/06/03 05:02:02;;;;;;;;;;;14.80;91.80;;;;;;4303951;33;44473;-77
2022/06/03 05:04:42;;;;;;;;;;;14.80;91.70;;;;;;4317482;33;42156;-77
2022/06/03 05:07:09;;;;;;;;;;;14.80;91.70;;;;;;4317410;33;44654;-77
2022/06/03 05:09:55;;;;;;;;;;;14.80;91.70;;;;;;4317335;33;43291;-77
2022/06/03 05:12:22;;;;;;;;;;;14.90;91.80;;;;;;4317340;33;43136;-77
2022/06/03 05:14:49;;;;;;;;;;;14.90;91.80;;;;;;4317713;33;43482;-77
2022/06/03 05:17:35;;;;;;;;;;;14.90;91.90;;;;;;4317650;33;43270;-77
2022/06/03 05:20:02;;;;;;;;;;;14.90;91.80;;;;;;4316790;33;43436;-77
2022/06/03 05:22:39;;;;;;;;;;;14.90;91.70;;;;;;4317088;33;42957;-77
2022/06/03 05:25:25;;;;;;;;;;;15.00;91.80;;;;;;4304139;33;43708;-77
2022/06/03 05:27:52;;;;;;;;;;;15.00;91.70;;;;;;4317636;33;20037;-77
2022/06/03 05:30:38;;;;;;;;;;;15.00;91.80;;;;;;4303931;33;44055;-77
2022/06/03 05:33:09;;;;;;;;;;;15.10;92.10;;;;;;4316976;33;44075;-76
2022/06/03 05:35:40;;;;;;;;;;;15.10;92.10;;;;;;4303592;33;43530;-77
2022/06/03 05:38:29;;;;;;;;;;;15.10;92.10;;;;;;4304771;33;43481;-77
2022/06/03 05:42:23;;;;;;;;;;;15.10;92.30;;;;;;4304023;33;44747;-76
2022/06/03 05:44:14;;;;;;;;;;;15.20;92.30;;;;;;4316723;33;42318;-77
2022/06/03 05:47:00;;;;;;;;;;;15.20;92.60;;;;;;4315464;33;44485;-77
2022/06/03 05:49:38;;;;;;;;;;;15.20;92.60;;;;;;4316967;33;43858;-77
2022/06/03 05:52:22;;;;;;;;;;;15.30;92.60;;;;;;4316688;33;43118;-77
2022/06/03 05:54:49;;;;;;;;;;;15.30;92.50;;;;;;4303807;33;44714;-77
2022/06/03 05:57:35;;;;;;;;;;;15.30;92.60;;;;;;4303074;33;44638;-77
2022/06/03 06:00:05;;;;;;;;;;;15.40;92.90;;;;;;4316646;33;44256;-77
2022/06/03 06:02:52;;;;;;;;;;;15.40;93.10;;;;;;4303449;33;38742;-77
2022/06/03 06:05:37;;;;;;;;;;;15.40;93.10;;;;;;4317147;33;43895;-77
2022/06/03 06:08:05;;;;;;;;;;;15.40;93.30;;;;;;4303451;33;45825;-77
2022/06/03 06:10:44;;;;;;;;;;;15.50;93.30;;;;;;4302941;33;43001;-77
2022/06/03 06:13:30;;;;;;;;;;;15.50;93.10;;;;;;4316528;33;43378;-77
2022/06/03 06:16:03;;;;;;;;;;;15.50;92.90;;;;;;4316112;33;43904;-77
2022/06/03 06:18:30;;;;;;;;;;;15.50;92.70;;;;;;4316347;33;44151;-77
2022/06/03 06:20:57;;;;;;;;;;;15.50;92.90;;;;;;4303314;33;44292;-77
2022/06/03 06:23:27;;;;;;;;;;;15.60;93.00;;;;;;4302785;33;42239;-77
2022/06/03 06:26:22;;;;;;;;;;;15.60;92.90;;;;;;4316526;33;45982;-77
2022/06/03 06:28:55;;;;;;;;;;;15.60;92.80;;;;;;4316965;33;31886;-77
2022/06/03 06:31:42;;;;;;;;;;;15.70;92.80;;;;;;4315822;33;45054;-77
2022/06/03 06:34:29;;;;;;;;;;;15.70;92.70;;;;;;4303272;33;44003;-77
2022/06/03 06:36:56;;;;;;;;;;;15.70;92.70;;;;;;4316104;33;43788;-77
2022/06/03 06:39:43;;;;;;;;;;;15.80;92.90;;;;;;4302961;33;45031;-77
2022/06/03 06:42:16;;;;;;;;;;;15.80;92.80;;;;;;4302891;33;45226;-77
2022/06/03 06:44:46;;;;;;;;;;;15.80;92.80;;;;;;4303517;33;43184;-77
2022/06/03 06:47:22;;;;;;;;;;;15.80;92.70;;;;;;4315824;33;42274;-77
2022/06/03 06:50:01;;;;;;;;;;;15.90;92.50;;;;;;4303250;33;43867;-77
2022/06/03 06:52:47;;;;;;;;;;;15.90;92.40;;;;;;4303064;33;43201;-77
2022/06/03 06:55:29;;;;;;;;;;;16.00;92.80;;;;;;4316079;33;45158;-77
2022/06/03 06:58:01;;;;;;;;;;;16.00;93.00;;;;;;4314700;33;44687;-77
2022/06/03 07:00:32;;;;;;;;;;;16.00;92.90;;;;;;4303119;33;43476;-77
2022/06/03 07:03:05;;;;;;;;;;;16.10;92.90;;;;;;4315344;33;44223;-77
2022/06/03 07:05:39;;;;;;;;;;;16.10;92.80;;;;;;4302799;33;45258;-77
2022/06/03 07:08:16;;;;;;;;;;;16.20;92.80;;;;;;4303056;33;44196;-77
2022/06/03 07:10:59;;;;;;;;;;;16.20;92.70;;;;;;4315892;33;43483;-77
2022/06/03 07:13:40;;;;;;;;;;;16.20;92.90;;;;;;4302687;33;42890;-77
2022/06/03 07:16:07;;;;;;;;;;;16.30;92.70;;;;;;4316098;33;43787;-77
2022/06/03 07:21:43;;;;;;;;;;;16.30;92.50;;;;;;4315982;33;45604;-77
2022/06/03 07:24:21;;;;;;;;;;;16.30;92.70;;;;;;4283265;33;43186;-77
2022/06/03 07:26:54;;;;;;;;;;;16.40;92.70;;;;;;4318451;33;44271;-77
2022/06/03 07:29:21;;;;;;;;;;;16.40;92.80;;;;;;4318885;33;45315;-77
2022/06/03 07:31:54;;;;;;;;;;;16.50;93.20;;;;;;4319707;33;20040;-77
2022/06/03 07:34:32;;;;;;;;;;;16.50;92.80;;;;;;4305813;33;43970;-77
2022/06/03 07:37:08;;;;;;;;;;;16.50;92.60;;;;;;4318800;33;45028;-76
2022/06/03 07:39:35;;;;;;;;;;;16.60;92.70;;;;;;4305417;33;42305;-77
2022/06/03 07:42:05;;;;;;;;;;;16.60;92.80;;;;;;4317153;33;43198;-77
2022/06/03 07:44:46;;;;;;;;;;;16.60;92.60;;;;;;4305525;33;43940;-77
2022/06/03 07:47:15;;;;;;;;;;;16.60;92.50;;;;;;4318326;33;44748;-77
2022/06/03 07:49:51;;;;;;;;;;;16.70;92.00;;;;;;4305708;33;44604;-77
2022/06/03 07:52:42;;;;;;;;;;;16.70;92.00;;;;;;4305437;33;45785;-76
2022/06/03 07:55:13;;;;;;;;;;;16.80;91.90;;;;;;4299207;33;43631;-77
2022/06/03 07:57:40;;;;;;;;;;;16.80;91.70;;;;;;4304934;33;44296;-77
2022/06/03 08:00:13;;;;;;;;;;;16.80;91.50;;;;;;4304994;33;42280;-77
2022/06/03 08:02:40;;;;;;;;;;;16.90;91.90;;;;;;4305330;33;20309;-77
2022/06/03 08:05:11;;;;;;;;;;;17.00;91.90;;;;;;4304856;33;42810;-77
2022/06/03 08:13:14;;;;;;;;;;;17.10;91.90;;;;;;4318236;33;45984;-77
2022/06/03 08:15:53;;;;;;;;;;;17.20;91.80;;;;;;4304977;33;43146;-77
2022/06/03 08:18:21;;;;;;;;;;;17.20;91.70;;;;;;4305000;33;44437;-77
2022/06/03 08:20:50;;;;;;;;;;;17.20;91.80;;;;;;4304809;33;44103;-77
2022/06/03 08:23:19;;;;;;;;;;;17.30;91.80;;;;;;4305059;33;43868;-77
2022/06/03 08:25:47;;;;;;;;;;;17.30;91.50;;;;;;4305105;33;43045;-77
2022/06/03 08:28:18;;;;;;;;;;;17.30;91.60;;;;;;4304819;33;43234;-77
2022/06/03 08:30:46;;;;;;;;;;;17.30;91.80;;;;;;4304698;33;46183;-77
2022/06/03 08:33:15;;;;;;;;;;;17.30;91.70;;;;;;4304859;33;24218;-77
2022/06/03 08:35:43;;;;;;;;;;;17.40;91.60;;;;;;4303496;33;42838;-77
2022/06/03 08:38:13;;;;;;;;;;;17.40;91.40;;;;;;4304495;33;44220;-77
2022/06/03 08:40:46;;;;;;;;;;;17.40;91.60;;;;;;4317613;33;43816;-77
2022/06/03 08:43:28;;;;;;;;;;;17.50;91.10;;;;;;4304484;33;43121;-77
2022/06/03 08:45:55;;;;;;;;;;;17.60;91.20;;;;;;4304707;33;44158;-77
2022/06/03 08:48:28;;;;;;;;;;;17.60;91.00;;;;;;4304532;33;44103;-77
2022/06/03 08:50:57;;;;;;;;;;;17.60;90.60;;;;;;4304787;33;44505;-78
2022/06/03 08:53:40;;;;;;;;;;;17.60;90.80;;;;;;4304135;33;42905;-77
2022/06/03 08:56:08;;;;;;;;;;;17.60;90.80;;;;;;4304398;33;44065;-77
2022/06/03 08:58:49;;;;;;;;;;;17.70;90.60;;;;;;4304137;33;43879;-78
2022/06/03 09:01:22;;;;;;;;;;;17.70;90.50;;;;;;4304328;33;46135;-77
2022/06/03 09:03:52;;;;;;;;;;;17.70;90.60;;;;;;4305203;33;19997;-77
2022/06/03 09:06:19;;;;;;;;;;;17.70;90.60;;;;;;4317552;33;44188;-77
2022/06/03 09:08:51;;;;;;;;;;;17.70;90.90;;;;;;4303896;33;44335;-77
2022/06/03 09:11:21;;;;;;;;;;;17.70;90.80;;;;;;4304667;33;44079;-77
2022/06/03 09:13:52;;;;;;;;;;;17.70;90.40;;;;;;4303764;33;43919;-77
2022/06/03 09:16:20;;;;;;;;;;;17.80;90.40;;;;;;4317345;33;45445;-77
2022/06/03 09:19:06;;;;;;;;;;;17.80;90.60;;;;;;4317293;33;46031;-77
2022/06/03 09:21:35;;;;;;;;;;;17.80;90.50;;;;;;4303766;33;44183;-77
2022/06/03 09:24:09;;;;;;;;;;;17.90;89.10;;;;;;4316995;33;44035;-77
2022/06/03 09:26:38;;;;;;;;;;;18.00;90.00;;;;;;4303624;33;44173;-77
2022/06/03 09:29:06;;;;;;;;;;;18.10;89.30;;;;;;4303634;33;42916;-77
2022/06/03 09:31:38;;;;;;;;;;;18.20;88.10;;;;;;4304140;33;43059;-77
2022/06/03 09:34:13;;;;;;;;;;;18.20;87.60;;;;;;4304770;33;19998;-77
2022/06/03 09:36:40;;;;;;;;;;;18.30;86.20;;;;;;4304042;33;44289;-77
2022/06/03 09:39:14;;;;;;;;;;;18.30;87.50;;;;;;4303677;33;44798;-77
2022/06/03 09:41:46;;;;;;;;;;;18.40;86.40;;;;;;4303888;33;44301;-77
2022/06/03 09:44:15;;;;;;;;;;;18.40;87.90;;;;;;4303900;33;45672;-77
2022/06/03 09:46:43;;;;;;;;;;;18.40;87.00;;;;;;4302978;33;45034;-77
2022/06/03 09:49:11;;;;;;;;;;;18.40;86.30;;;;;;4303566;33;44041;-77
2022/06/03 09:51:56;;;;;;;;;;;18.50;85.70;;;;;;4315956;33;43995;-78
2022/06/03 09:54:40;;;;;;;;;;;18.60;85.20;;;;;;4303651;33;43946;-76
2022/06/03 09:57:13;;;;;;;;;;;18.60;85.20;;;;;;4303427;33;43936;-77
2022/06/03 09:59:52;;;;;;;;;;;18.70;84.30;;;;;;4303859;33;45909;-77
2022/06/03 10:02:19;;;;;;;;;;;18.70;82.90;;;;;;4303057;33;45757;-77
2022/06/03 10:04:50;;;;;;;;;;;18.80;82.90;;;;;;4317114;33;20434;-77
2022/06/03 10:07:25;;;;;;;;;;;18.80;82.10;;;;;;4303004;33;43569;-77
2022/06/03 10:12:52;;;;;;;;;;;18.90;82.90;;;;;;4316937;33;44135;-78
2022/06/03 10:15:38;;;;;;;;;;;18.90;82.20;;;;;;4303481;33;45378;-77
2022/06/03 10:18:15;;;;;;;;;;;18.90;82.00;;;;;;4303377;33;44762;-77
2022/06/03 10:20:43;;;;;;;;;;;18.90;82.10;;;;;;4302834;33;43982;-77
2022/06/03 10:23:18;;;;;;;;;;;19.00;82.30;;;;;;4303335;33;43482;-77
2022/06/03 10:26:04;;;;;;;;;;;19.00;82.40;;;;;;4305401;33;43137;-77
2022/06/03 10:28:34;;;;;;;;;;;19.10;83.00;;;;;;4315858;33;44618;-77
2022/06/03 10:31:06;;;;;;;;;;;19.10;82.40;;;;;;4316413;33;43906;-77
2022/06/03 10:33:37;;;;;;;;;;;19.10;81.30;;;;;;4303182;33;44741;-77
2022/06/03 10:36:04;;;;;;;;;;;19.20;81.40;;;;;;4302744;33;44085;-77
2022/06/03 10:38:33;;;;;;;;;;;19.20;80.60;;;;;;4315824;33;44800;-77
2022/06/03 10:41:09;;;;;;;;;;;19.20;81.30;;;;;;4302627;33;45642;-77
2022/06/03 10:43:37;;;;;;;;;;;19.20;81.10;;;;;;4303015;33;43493;-77
2022/06/03 10:46:07;;;;;;;;;;;19.30;80.70;;;;;;4303033;33;28205;-76
2022/06/03 10:48:35;;;;;;;;;;;19.30;80.90;;;;;;4302928;33;44120;-77
2022/06/03 10:51:18;;;;;;;;;;;19.30;79.80;;;;;;4302650;33;44554;-77
2022/06/03 11:02:28;;;;;;;;;;;19.30;79.50;;;;;;4315289;33;44122;-77
2022/06/03 11:05:11;;;;;;;;;;;19.30;80.80;;;;;;4302947;33;43338;-77
2022/06/03 11:07:39;;;;;;;;;;;19.30;80.70;;;;;;4302922;33;46187;-78
2022/06/03 11:10:14;;;;;;;;;;;19.30;80.20;;;;;;4302448;33;44125;-77
2022/06/03 11:13:03;;;;;;;;;;;19.30;80.10;;;;;;4304890;33;45541;-77
2022/06/03 11:15:33;;;;;;;;;;;19.40;79.40;;;;;;4314629;33;43360;-77
2022/06/03 11:18:11;;;;;;;;;;;19.30;79.90;;;;;;4302633;33;44361;-77
2022/06/03 11:20:42;;;;;;;;;;;19.30;79.60;;;;;;4303026;33;43482;-77
2022/06/03 11:23:10;;;;;;;;;;;19.30;80.10;;;;;;4302711;33;43476;-77
2022/06/03 11:25:41;;;;;;;;;;;19.40;80.00;;;;;;4302654;33;44400;-76
2022/06/03 11:28:36;;;;;;;;;;;19.40;79.40;;;;;;4302817;33;44742;-77
2022/06/03 11:31:16;;;;;;;;;;;19.50;79.40;;;;;;4303023;33;44255;-77
2022/06/03 11:33:56;;;;;;;;;;;19.40;79.80;;;;;;4303049;33;44158;-77
2022/06/03 11:36:36;;;;;;;;;;;19.40;79.40;;;;;;4302414;33;43241;-77
2022/06/03 11:39:05;;;;;;;;;;;19.40;80.10;;;;;;4303329;33;20002;-77
2022/06/03 11:41:32;;;;;;;;;;;19.40;80.60;;;;;;4302185;33;43649;-77
2022/06/03 11:44:03;;;;;;;;;;;19.40;80.60;;;;;;4302411;33;43822;-77
2022/06/03 11:46:35;;;;;;;;;;;19.50;79.80;;;;;;4314333;33;43255;-78
2022/06/03 11:49:07;;;;;;;;;;;19.40;80.70;;;;;;4302791;33;45011;-77
2022/06/03 11:51:34;;;;;;;;;;;19.50;80.80;;;;;;4302443;33;44921;-78
2022/06/03 11:54:02;;;;;;;;;;;19.40;81.50;;;;;;4302404;33;44730;-77
2022/06/03 11:56:30;;;;;;;;;;;19.50;81.30;;;;;;4302451;33;44839;-77
2022/06/03 11:59:13;;;;;;;;;;;19.50;81.40;;;;;;4301901;33;46012;-77
2022/06/03 12:01:56;;;;;;;;;;;19.60;80.80;;;;;;4302251;33;43449;-77
2022/06/03 12:04:49;;;;;;;;;;;19.70;80.60;;;;;;4303366;33;45064;-77
2022/06/03 12:07:29;;;;;;;;;;;19.60;80.70;;;;;;4302418;33;44642;-77
2022/06/03 12:10:15;;;;;;;;;;;19.70;80.20;;;;;;4306031;33;20400;-78
2022/06/03 12:15:44;;;;;;;;;;;19.80;80.60;;;;;;4317873;33;42963;-77
2022/06/03 12:18:11;;;;;;;;;;;19.80;80.30;;;;;;4305060;33;44374;-76
2022/06/03 12:20:41;;;;;;;;;;;19.90;80.50;;;;;;4317966;33;44812;-77
2022/06/03 12:23:11;;;;;;;;;;;20.00;80.50;;;;;;4304518;33;43958;-77
2022/06/03 12:25:41;;;;;;;;;;;20.00;79.50;;;;;;4304333;33;44472;-77
2022/06/03 12:28:15;;;;;;;;;;;20.00;79.20;;;;;;4318033;33;43362;-77
2022/06/03 12:30:50;;;;;;;;;;;20.10;80.20;;;;;;4304905;33;44081;-77
2022/06/03 12:33:24;;;;;;;;;;;20.10;79.70;;;;;;4304475;33;44021;-77
2022/06/03 12:35:57;;;;;;;;;;;20.10;80.50;;;;;;4304960;33;44027;-77
2022/06/03 12:38:33;;;;;;;;;;;20.20;80.00;;;;;;4305827;33;44070;-77
2022/06/03 12:41:04;;;;;;;;;;;20.20;79.60;;;;;;4318394;33;19994;-77
2022/06/03 12:43:51;;;;;;;;;;;20.30;80.30;;;;;;4304661;33;43758;-77
2022/06/03 12:46:39;;;;;;;;;;;20.20;80.70;;;;;;4304716;33;43500;-77
2022/06/03 12:49:16;;;;;;;;;;;20.20;80.50;;;;;;4317972;33;43388;-77
2022/06/03 12:52:01;;;;;;;;;;;20.30;80.60;;;;;;4304551;33;44743;-77
2022/06/03 12:54:28;;;;;;;;;;;20.20;80.50;;;;;;4304543;33;44406;-77
2022/06/03 12:57:15;;;;;;;;;;;20.30;80.80;;;;;;4304567;33;44185;-76
2022/06/03 12:59:49;;;;;;;;;;;20.20;81.40;;;;;;4304443;33;43648;-77
2022/06/03 13:02:18;;;;;;;;;;;20.20;82.10;;;;;;4304092;33;43614;-77
2022/06/03 13:04:54;;;;;;;;;;;20.10;81.90;;;;;;4316813;33;42913;-77
2022/06/03 13:07:27;;;;;;;;;;;20.10;82.10;;;;;;4304288;33;43321;-77
2022/06/03 13:10:03;;;;;;;;;;;20.10;82.10;;;;;;4304167;33;44268;-78
2022/06/03 13:12:32;;;;;;;;;;;20.10;81.80;;;;;;4304178;33;43922;-77
2022/06/03 13:15:20;;;;;;;;;;;20.10;82.30;;;;;;4304112;33;44180;-77
2022/06/03 13:20:51;;;;;;;;;;;20.10;82.40;;;;;;4316352;33;45027;-77
2022/06/03 13:23:21;;;;;;;;;;;20.20;82.40;;;;;;4304053;33;46008;-78
2022/06/03 13:25:52;;;;;;;;;;;20.20;82.90;;;;;;4304122;33;45052;-77
2022/06/03 13:28:37;;;;;;;;;;;20.20;83.10;;;;;;4304423;33;45632;-77
2022/06/03 13:31:07;;;;;;;;;;;20.10;83.50;;;;;;4304000;33;45517;-77
2022/06/03 13:33:53;;;;;;;;;;;20.10;83.60;;;;;;4303982;33;44687;-77
2022/06/03 13:36:32;;;;;;;;;;;20.20;83.30;;;;;;4316580;33;44131;-77
2022/06/03 13:38:59;;;;;;;;;;;20.20;83.80;;;;;;4316791;33;44196;-77
2022/06/03 13:44:40;;;;;;;;;;;20.10;83.90;;;;;;4316823;33;44793;-76
2022/06/03 13:47:12;;;;;;;;;;;20.20;83.50;;;;;;4303886;33;45025;-77
2022/06/03 13:49:55;;;;;;;;;;;20.20;83.00;;;;;;4315869;33;44668;-77
2022/06/03 13:52:33;;;;;;;;;;;20.20;82.80;;;;;;4303428;33;44962;-77
2022/06/03 13:55:20;;;;;;;;;;;20.20;83.40;;;;;;4303737;33;43490;-77
2022/06/03 13:57:53;;;;;;;;;;;20.20;83.90;;;;;;4303380;33;42952;-77
2022/06/03 14:00:40;;;;;;;;;;;20.20;83.40;;;;;;4316791;33;44803;-77
2022/06/03 14:03:22;;;;;;;;;;;20.30;82.80;;;;;;4316077;33;45451;-76
2022/06/03 14:06:01;;;;;;;;;;;20.30;83.50;;;;;;4315585;33;42992;-77
2022/06/03 14:08:52;;;;;;;;;;;20.30;83.10;;;;;;4303610;33;45314;-77
2022/06/03 14:11:34;;;;;;;;;;;20.20;82.70;;;;;;4303551;33;46050;-77
2022/06/03 14:14:10;;;;;;;;;;;20.20;82.50;;;;;;4316348;33;20081;-77
2022/06/03 14:16:49;;;;;;;;;;;20.20;82.80;;;;;;4316737;33;45472;-76
2022/06/03 14:19:35;;;;;;;;;;;20.20;83.20;;;;;;4303674;33;46036;-77
2022/06/03 14:22:33;;;;;;;;;;;20.20;82.70;;;;;;4304022;33;43701;-77
2022/06/03 14:25:17;;;;;;;;;;;20.30;83.50;;;;;;4295995;33;42489;-77
2022/06/03 14:28:05;;;;;;;;;;;20.30;83.30;;;;;;4303460;33;43014;-77
2022/06/03 14:30:48;;;;;;;;;;;20.30;83.50;;;;;;4303185;33;44255;-77
2022/06/03 14:33:22;;;;;;;;;;;20.30;83.30;;;;;;4316353;33;44956;-77
2022/06/03 14:36:02;;;;;;;;;;;20.40;83.10;;;;;;4316237;33;42877;-76
2022/06/03 14:38:51;;;;;;;;;;;20.40;83.00;;;;;;4315118;33;45197;-77
2022/06/03 14:41:23;;;;;;;;;;;20.40;83.10;;;;;;4303544;33;44906;-77
2022/06/03 14:43:50;;;;;;;;;;;20.40;82.50;;;;;;4316022;33;43220;-77
2022/06/03 14:46:20;;;;;;;;;;;20.50;82.60;;;;;;4303217;33;44761;-77
2022/06/03 14:48:53;;;;;;;;;;;20.50;83.20;;;;;;4314633;33;42969;-77
2022/06/03 14:51:39;;;;;;;;;;;20.50;82.90;;;;;;4302646;33;42905;-77
2022/06/03 14:54:12;;;;;;;;;;;20.50;83.40;;;;;;4303102;33;44176;-77
2022/06/03 14:56:39;;;;;;;;;;;20.50;83.40;;;;;;4303215;33;43275;-77
2022/06/03 14:59:13;;;;;;;;;;;20.50;83.60;;;;;;4315915;33;43030;-77
2022/06/03 15:01:49;;;;;;;;;;;20.50;83.50;;;;;;4315785;33;42480;-78
2022/06/03 15:04:22;;;;;;;;;;;20.50;83.20;;;;;;4303198;33;45826;-77
2022/06/03 15:06:53;;;;;;;;;;;20.50;83.70;;;;;;4302906;33;44422;-77
2022/06/03 15:09:36;;;;;;;;;;;20.50;82.50;;;;;;4303149;33;43460;-77
2022/06/03 15:12:17;;;;;;;;;;;20.50;83.00;;;;;;4315892;33;45799;-77
2022/06/03 15:14:44;;;;;;;;;;;20.60;83.00;;;;;;4302964;33;43869;-76
2022/06/03 15:17:13;;;;;;;;;;;20.60;83.00;;;;;;4316715;33;20002;-77
2022/06/03 15:19:42;;;;;;;;;;;20.60;82.70;;;;;;4315389;33;43081;-77
2022/06/03 15:22:21;;;;;;;;;;;20.60;82.60;;;;;;4302603;33;44215;-77
2022/06/03 15:25:06;;;;;;;;;;;20.60;82.90;;;;;;4302603;33;43822;-77
2022/06/03 15:27:42;;;;;;;;;;;20.60;82.90;;;;;;4315932;33;45783;-77
2022/06/03 15:30:18;;;;;;;;;;;20.70;82.80;;;;;;4316112;33;44333;-77
2022/06/03 15:32:46;;;;;;;;;;;20.70;83.50;;;;;;4303000;33;45023;-77
2022/06/03 15:35:16;;;;;;;;;;;20.70;82.40;;;;;;4302157;33;45627;-77
2022/06/03 15:37:46;;;;;;;;;;;20.80;82.70;;;;;;4315802;33;43482;-77
2022/06/03 15:40:33;;;;;;;;;;;20.80;82.60;;;;;;4302837;33;44203;-77